Time;durP1;ratioP1;P1;durP2;ratioP2;P2;SDS_P1;SDS_P2;PMS_P1;PMS_P2;Temp;Humidity;BMP_temperature;BMP_pressure;BME280_temperature;BME280_humidity;BME280_pressure;Samples;Min_cycle;Max_cycle;Signal;HPM_P1;HPM_P2
2022/12/18 00:00:01;;;;;;;126.30;15.20;;;;;;;;;;5030632;28;20041;-54
2022/12/18 00:02:28;;;;;;;152.23;16.20;;;;;;;;;;5026692;28;20119;-50
2022/12/18 00:04:55;;;;;;;147.10;17.13;;;;;;;;;;5031067;28;20200;-54
2022/12/18 00:07:22;;;;;;;137.23;15.25;;;;;;;;;;5029878;28;20041;-50
2022/12/18 00:09:49;;;;;;;137.73;15.07;;;;;;;;;;5030570;28;20040;-49
2022/12/18 00:12:16;;;;;;;104.72;13.20;;;;;;;;;;5030859;28;20123;-53
2022/12/18 00:14:43;;;;;;;88.43;10.07;;;;;;;;;;5031515;28;20025;-53
2022/12/18 00:17:10;;;;;;;108.18;13.50;;;;;;;;;;5030740;28;20029;-52
2022/12/18 00:19:37;;;;;;;131.40;17.55;;;;;;;;;;5029817;28;20361;-50
2022/12/18 00:22:05;;;;;;;115.13;14.88;;;;;;;;;;5031133;28;20497;-53
2022/12/18 00:24:32;;;;;;;127.82;15.68;;;;;;;;;;5030603;28;20510;-51
2022/12/18 00:26:59;;;;;;;95.85;13.32;;;;;;;;;;5031280;28;20034;-54
2022/12/18 00:29:26;;;;;;;119.95;14.18;;;;;;;;;;5029207;28;20037;-55
2022/12/18 00:31:53;;;;;;;91.38;11.70;;;;;;;;;;5030823;28;20046;-50
2022/12/18 00:34:20;;;;;;;82.07;11.70;;;;;;;;;;5030964;28;20029;-52
2022/12/18 00:36:48;;;;;;;83.18;11.60;;;;;;;;;;5031076;28;20030;-44
2022/12/18 00:39:15;;;;;;;74.25;10.70;;;;;;;;;;5030625;28;20037;-44
2022/12/18 00:44:28;;;;;;;73.65;9.45;;;;;;;;;;5031415;28;20095;-44
2022/12/18 00:46:55;;;;;;;96.95;12.18;;;;;;;;;;5030872;28;20032;-47
2022/12/18 00:49:22;;;;;;;92.47;10.90;;;;;;;;;;5031378;28;20034;-46
2022/12/18 00:51:49;;;;;;;85.38;10.07;;;;;;;;;;5031356;28;20065;-44
2022/12/18 00:54:17;;;;;;;68.75;9.15;;;;;;;;;;5030566;28;20056;-48
2022/12/18 00:56:44;;;;;;;55.85;9.63;;;;;;;;;;5031125;28;20164;-48
2022/12/18 00:59:11;;;;;;;92.38;10.82;;;;;;;;;;5031190;28;20025;-46
2022/12/18 01:01:38;;;;;;;87.50;10.95;;;;;;;;;;5030772;28;20048;-45
2022/12/18 01:04:05;;;;;;;63.90;8.68;;;;;;;;;;5031201;28;20022;-51
2022/12/18 01:06:32;;;;;;;76.45;9.93;;;;;;;;;;5030989;28;20794;-47
2022/12/18 01:08:59;;;;;;;87.18;9.05;;;;;;;;;;5030722;28;20033;-50
2022/12/18 01:11:26;;;;;;;85.18;10.38;;;;;;;;;;5031427;28;20403;-47
2022/12/18 01:13:54;;;;;;;119.95;11.35;;;;;;;;;;5034913;28;20026;-46
2022/12/18 01:16:21;;;;;;;102.80;10.20;;;;;;;;;;5034379;28;20031;-45
2022/12/18 01:18:52;;;;;;;105.07;11.43;;;;;;;;;;5034886;28;20518;-45
2022/12/18 01:21:19;;;;;;;110.45;12.48;;;;;;;;;;5034308;28;20079;-46
2022/12/18 01:23:46;;;;;;;77.22;10.32;;;;;;;;;;5034445;28;20044;-44
2022/12/18 01:26:15;;;;;;;69.00;8.80;;;;;;;;;;5034299;28;20033;-45
2022/12/18 01:28:43;;;;;;;72.10;8.75;;;;;;;;;;5034266;28;20029;-46
2022/12/18 01:31:11;;;;;;;86.40;9.55;;;;;;;;;;5052919;28;20041;-44
2022/12/18 01:33:38;;;;;;;75.30;9.07;;;;;;;;;;5054334;28;20033;-45
2022/12/18 01:36:05;;;;;;;52.67;7.95;;;;;;;;;;5054040;28;20447;-44
2022/12/18 01:38:32;;;;;;;49.15;7.90;;;;;;;;;;5052960;28;20506;-44
2022/12/18 01:41:02;;;;;;;69.80;9.15;;;;;;;;;;5052885;28;20501;-45
2022/12/18 01:44:01;;;;;;;57.55;8.90;;;;;;;;;;5052546;28;20032;-44
2022/12/18 01:46:28;;;;;;;57.67;9.75;;;;;;;;;;5013108;28;20044;-46
2022/12/18 01:48:58;;;;;;;66.70;8.38;;;;;;;;;;5053535;28;20035;-44
2022/12/18 01:51:25;;;;;;;63.70;8.88;;;;;;;;;;5053585;28;20120;-44
2022/12/18 01:53:52;;;;;;;58.72;8.63;;;;;;;;;;5053609;28;20057;-47
2022/12/18 01:56:20;;;;;;;65.28;8.32;;;;;;;;;;5053537;28;20410;-43
2022/12/18 01:58:50;;;;;;;79.55;8.35;;;;;;;;;;5041159;28;20124;-45
2022/12/18 02:01:17;;;;;;;52.75;8.25;;;;;;;;;;5035141;28;20028;-45
2022/12/18 02:03:45;;;;;;;96.32;13.57;;;;;;;;;;5033780;28;20040;-45
2022/12/18 02:06:11;;;;;;;127.78;19.10;;;;;;;;;;5035618;28;20785;-44
2022/12/18 02:08:43;;;;;;;115.10;18.35;;;;;;;;;;5024811;28;20025;-44
2022/12/18 02:11:16;;;;;;;73.30;14.32;;;;;;;;;;5027034;28;20065;-49
2022/12/18 02:13:43;;;;;;;57.05;12.23;;;;;;;;;;5025284;28;20028;-44
2022/12/18 02:16:19;;;;;;;68.60;11.63;;;;;;;;;;5021362;28;20028;-46
2022/12/18 02:18:48;;;;;;;58.53;10.15;;;;;;;;;;5022537;28;20025;-43
2022/12/18 02:21:15;;;;;;;68.40;10.73;;;;;;;;;;5021083;28;20068;-44
2022/12/18 02:23:48;;;;;;;57.20;11.10;;;;;;;;;;5021931;28;20029;-43
2022/12/18 02:26:21;;;;;;;76.50;12.60;;;;;;;;;;5023012;28;20108;-47
2022/12/18 02:28:52;;;;;;;59.42;10.02;;;;;;;;;;5022853;28;20159;-47
2022/12/18 02:31:22;;;;;;;47.85;9.50;;;;;;;;;;5020231;28;20096;-45
2022/12/18 02:33:50;;;;;;;39.88;7.28;;;;;;;;;;5013489;28;20037;-43
2022/12/18 02:36:18;;;;;;;36.72;5.72;;;;;;;;;;5013502;28;20034;-45
2022/12/18 02:38:45;;;;;;;40.13;6.32;;;;;;;;;;5013175;28;20033;-45
2022/12/18 02:41:14;;;;;;;52.50;7.32;;;;;;;;;;5026485;28;20092;-43
2022/12/18 02:43:42;;;;;;;36.45;5.85;;;;;;;;;;5033193;28;20445;-46
2022/12/18 02:46:24;;;;;;;31.48;5.38;;;;;;;;;;5021236;28;20028;-46
2022/12/18 02:48:51;;;;;;;45.30;5.80;;;;;;;;;;5013340;28;20026;-43
2022/12/18 02:51:24;;;;;;;59.65;6.82;;;;;;;;;;5012886;28;20045;-45
2022/12/18 02:53:57;;;;;;;46.90;5.97;;;;;;;;;;5012393;28;20041;-44
2022/12/18 02:56:32;;;;;;;53.63;5.93;;;;;;;;;;5012814;28;20514;-44
2022/12/18 02:59:02;;;;;;;37.45;4.88;;;;;;;;;;5012910;28;20503;-45
2022/12/18 03:01:37;;;;;;;44.40;5.78;;;;;;;;;;5012278;28;20037;-45
2022/12/18 03:04:17;;;;;;;43.20;5.30;;;;;;;;;;5019910;28;20030;-46
2022/12/18 03:06:50;;;;;;;35.25;4.95;;;;;;;;;;5037214;28;20033;-48
2022/12/18 03:09:38;;;;;;;30.20;4.72;;;;;;;;;;5050195;28;20487;-45
2022/12/18 03:12:23;;;;;;;36.90;5.68;;;;;;;;;;5052095;28;20110;-45
2022/12/18 03:15:20;;;;;;;34.80;5.10;;;;;;;;;;5052167;28;20127;-45
2022/12/18 03:17:50;;;;;;;32.90;4.93;;;;;;;;;;5039847;28;20033;-44
2022/12/18 03:20:20;;;;;;;43.55;5.32;;;;;;;;;;5052370;28;20025;-44
2022/12/18 03:22:50;;;;;;;35.38;5.28;;;;;;;;;;5052548;28;20595;-46
2022/12/18 03:25:18;;;;;;;28.08;4.40;;;;;;;;;;5052680;28;20111;-44
2022/12/18 03:27:49;;;;;;;30.80;4.65;;;;;;;;;;5052032;28;20040;-44
2022/12/18 03:30:17;;;;;;;30.03;4.30;;;;;;;;;;5052369;28;20108;-48
2022/12/18 03:33:13;;;;;;;32.10;4.25;;;;;;;;;;5052446;28;20047;-44
2022/12/18 03:35:42;;;;;;;32.60;4.32;;;;;;;;;;5038906;28;20067;-48
2022/12/18 03:38:11;;;;;;;33.70;4.00;;;;;;;;;;5052096;28;20129;-44
2022/12/18 03:40:49;;;;;;;35.22;5.03;;;;;;;;;;5051970;28;20033;-44
2022/12/18 03:43:40;;;;;;;38.75;4.35;;;;;;;;;;5051859;28;20045;-44
2022/12/18 03:46:14;;;;;;;27.52;4.47;;;;;;;;;;5024258;28;20064;-47
2022/12/18 03:48:45;;;;;;;39.85;4.28;;;;;;;;;;5052149;28;20021;-44
2022/12/18 03:51:19;;;;;;;29.63;4.40;;;;;;;;;;5051995;28;20029;-44
2022/12/18 03:53:50;;;;;;;29.77;4.20;;;;;;;;;;5030586;28;20041;-46
2022/12/18 03:56:19;;;;;;;31.17;5.18;;;;;;;;;;5025271;28;20125;-44
2022/12/18 03:58:47;;;;;;;46.25;5.82;;;;;;;;;;5009350;28;20113;-44
2022/12/18 04:01:16;;;;;;;28.17;4.28;;;;;;;;;;5012221;28;20042;-43
2022/12/18 04:03:44;;;;;;;30.38;4.25;;;;;;;;;;5005708;28;20069;-43
2022/12/18 04:06:12;;;;;;;31.77;4.43;;;;;;;;;;5025638;28;20091;-44
2022/12/18 04:08:39;;;;;;;34.88;4.78;;;;;;;;;;5032083;28;20472;-44
2022/12/18 04:11:06;;;;;;;59.08;6.20;;;;;;;;;;5031528;28;20037;-43
2022/12/18 04:13:35;;;;;;;37.50;4.78;;;;;;;;;;5031989;28;20561;-46
2022/12/18 04:16:03;;;;;;;61.55;5.95;;;;;;;;;;5032037;28;20124;-43
2022/12/18 04:18:30;;;;;;;39.10;5.07;;;;;;;;;;5031571;28;20091;-43
2022/12/18 04:20:56;;;;;;;38.38;5.28;;;;;;;;;;5031853;28;20032;-43
2022/12/18 04:23:23;;;;;;;41.20;4.70;;;;;;;;;;5031886;28;20037;-43
2022/12/18 04:25:50;;;;;;;38.03;5.40;;;;;;;;;;5031878;28;20419;-44
2022/12/18 04:28:17;;;;;;;37.55;4.43;;;;;;;;;;5031955;28;20522;-43
2022/12/18 04:30:44;;;;;;;35.50;4.38;;;;;;;;;;5031704;28;20041;-43
2022/12/18 04:33:12;;;;;;;49.88;5.30;;;;;;;;;;5031950;28;20026;-43
2022/12/18 04:35:40;;;;;;;32.53;3.90;;;;;;;;;;5031800;28;20049;-43
2022/12/18 04:38:10;;;;;;;26.50;3.78;;;;;;;;;;5031804;28;20017;-45
2022/12/18 04:40:37;;;;;;;30.98;3.83;;;;;;;;;;5031697;28;20029;-43
2022/12/18 04:43:04;;;;;;;24.92;3.88;;;;;;;;;;5031796;28;20476;-43
2022/12/18 04:45:32;;;;;;;36.53;4.38;;;;;;;;;;5032579;28;20403;-48
2022/12/18 04:47:59;;;;;;;31.23;4.03;;;;;;;;;;5035586;28;20017;-46
2022/12/18 04:50:26;;;;;;;40.47;4.65;;;;;;;;;;5035611;28;20056;-45
2022/12/18 04:52:53;;;;;;;37.72;4.47;;;;;;;;;;5040438;28;20453;-48
2022/12/18 04:55:20;;;;;;;34.53;4.63;;;;;;;;;;5055618;28;20067;-45
2022/12/18 04:57:47;;;;;;;35.53;4.93;;;;;;;;;;5055554;28;20501;-48
2022/12/18 05:00:14;;;;;;;33.75;5.50;;;;;;;;;;5055409;28;20028;-46
2022/12/18 05:02:41;;;;;;;39.88;5.03;;;;;;;;;;5055401;28;20033;-46
2022/12/18 05:05:09;;;;;;;35.85;4.45;;;;;;;;;;5055419;28;20533;-46
2022/12/18 05:07:36;;;;;;;25.27;4.03;;;;;;;;;;5055312;28;20036;-43
2022/12/18 05:10:02;;;;;;;23.00;3.22;;;;;;;;;;5055232;28;20490;-47
2022/12/18 05:12:29;;;;;;;42.35;4.40;;;;;;;;;;5055257;28;20139;-48
2022/12/18 05:14:56;;;;;;;23.55;3.60;;;;;;;;;;5055001;28;20039;-47
2022/12/18 05:17:23;;;;;;;18.13;3.05;;;;;;;;;;5055235;28;20142;-49
2022/12/18 05:19:50;;;;;;;24.20;3.30;;;;;;;;;;5055087;28;20048;-47
2022/12/18 05:22:17;;;;;;;23.45;3.53;;;;;;;;;;5055158;28;20495;-47
2022/12/18 05:24:44;;;;;;;21.70;3.20;;;;;;;;;;5055069;28;20036;-48
2022/12/18 05:27:11;;;;;;;23.10;2.95;;;;;;;;;;5054997;28;20025;-46
2022/12/18 05:29:38;;;;;;;26.58;3.35;;;;;;;;;;5054744;28;20033;-47
2022/12/18 05:32:05;;;;;;;21.08;3.03;;;;;;;;;;5054805;28;20029;-44
2022/12/18 05:34:33;;;;;;;19.05;3.10;;;;;;;;;;5054835;28;20102;-47
2022/12/18 05:37:00;;;;;;;20.48;2.72;;;;;;;;;;5054699;28;20116;-47
2022/12/18 05:39:27;;;;;;;23.35;3.35;;;;;;;;;;5054514;28;20025;-44
2022/12/18 05:41:54;;;;;;;25.88;3.10;;;;;;;;;;5054745;28;20033;-42
2022/12/18 05:44:21;;;;;;;22.27;2.83;;;;;;;;;;5054665;28;20041;-43
2022/12/18 05:46:47;;;;;;;32.95;3.90;;;;;;;;;;5054675;28;20086;-44
2022/12/18 05:49:14;;;;;;;27.75;3.85;;;;;;;;;;5054537;28;20025;-44
2022/12/18 05:51:41;;;;;;;24.38;3.55;;;;;;;;;;5054576;28;20562;-43
2022/12/18 05:54:08;;;;;;;27.88;3.95;;;;;;;;;;5054222;28;20122;-43
2022/12/18 05:56:35;;;;;;;25.95;3.30;;;;;;;;;;5054182;28;20039;-43
2022/12/18 05:59:02;;;;;;;31.27;3.53;;;;;;;;;;5053697;28;20029;-43
2022/12/18 06:01:29;;;;;;;32.40;4.20;;;;;;;;;;5045085;28;20142;-48
2022/12/18 06:03:56;;;;;;;31.20;3.40;;;;;;;;;;5034155;28;20037;-47
2022/12/18 06:06:24;;;;;;;27.98;3.38;;;;;;;;;;5034321;28;20029;-47
2022/12/18 06:08:52;;;;;;;25.60;3.65;;;;;;;;;;5034052;28;20051;-49
2022/12/18 06:11:20;;;;;;;19.10;2.75;;;;;;;;;;5034141;28;20038;-48
2022/12/18 06:13:50;;;;;;;21.55;3.28;;;;;;;;;;5034192;28;20052;-45
2022/12/18 06:16:17;;;;;;;21.83;2.85;;;;;;;;;;5034151;28;20083;-47
2022/12/18 06:18:44;;;;;;;24.83;2.95;;;;;;;;;;5034081;28;20030;-46
2022/12/18 06:21:11;;;;;;;21.95;3.20;;;;;;;;;;5033712;28;20436;-46
2022/12/18 06:23:38;;;;;;;24.88;3.10;;;;;;;;;;5033894;28;20510;-48
2022/12/18 06:26:09;;;;;;;15.77;2.72;;;;;;;;;;5034005;28;20101;-49
2022/12/18 06:28:36;;;;;;;29.30;3.60;;;;;;;;;;5033628;28;20639;-45
2022/12/18 06:31:06;;;;;;;21.83;3.22;;;;;;;;;;5033441;28;20503;-47
2022/12/18 06:33:33;;;;;;;19.63;2.58;;;;;;;;;;5033750;28;20029;-45
2022/12/18 06:36:05;;;;;;;24.52;3.00;;;;;;;;;;5033831;28;20140;-49
2022/12/18 06:38:33;;;;;;;16.30;2.65;;;;;;;;;;5033699;28;20101;-46
2022/12/18 06:41:00;;;;;;;17.73;2.50;;;;;;;;;;5033656;28;20038;-48
2022/12/18 06:43:27;;;;;;;17.38;2.80;;;;;;;;;;5033508;28;20064;-44
2022/12/18 06:46:01;;;;;;;26.08;3.25;;;;;;;;;;5033519;28;20040;-47
2022/12/18 06:48:28;;;;;;;21.25;3.03;;;;;;;;;;5033521;28;20091;-46
2022/12/18 06:50:55;;;;;;;18.35;2.92;;;;;;;;;;5033320;28;20061;-46
2022/12/18 06:53:22;;;;;;;25.83;3.88;;;;;;;;;;5033250;28;20056;-46
2022/12/18 06:55:49;;;;;;;17.13;2.53;;;;;;;;;;5015731;28;20037;-47
2022/12/18 06:58:16;;;;;;;28.60;3.13;;;;;;;;;;5033396;28;20041;-48
2022/12/18 07:00:43;;;;;;;24.38;2.55;;;;;;;;;;5033078;28;20076;-44
2022/12/18 07:03:10;;;;;;;20.55;2.88;;;;;;;;;;5033285;28;20049;-47
2022/12/18 07:05:40;;;;;;;25.83;3.13;;;;;;;;;;5033284;28;20135;-46
2022/12/18 07:08:08;;;;;;;16.92;2.88;;;;;;;;;;5033220;28;20163;-47
2022/12/18 07:10:35;;;;;;;19.35;2.53;;;;;;;;;;5032933;28;20071;-51
2022/12/18 07:13:02;;;;;;;26.30;2.95;;;;;;;;;;5033078;28;20049;-45
2022/12/18 07:15:28;;;;;;;18.58;3.28;;;;;;;;;;5033029;28;20025;-48
2022/12/18 07:17:55;;;;;;;36.70;4.35;;;;;;;;;;5033030;28;20030;-44
2022/12/18 07:20:22;;;;;;;27.65;3.65;;;;;;;;;;5032636;28;20111;-48
2022/12/18 07:22:49;;;;;;;24.27;3.33;;;;;;;;;;5032932;28;20033;-45
2022/12/18 07:25:16;;;;;;;29.25;3.53;;;;;;;;;;5032867;28;20407;-45
2022/12/18 07:27:43;;;;;;;31.73;3.60;;;;;;;;;;5032831;28;20091;-48
2022/12/18 07:30:11;;;;;;;23.70;3.20;;;;;;;;;;5032721;28;20036;-47
2022/12/18 07:32:38;;;;;;;32.88;4.05;;;;;;;;;;5032649;28;20044;-46
2022/12/18 07:35:05;;;;;;;25.35;3.90;;;;;;;;;;5032668;28;20030;-48
2022/12/18 07:37:32;;;;;;;29.48;3.88;;;;;;;;;;5032551;28;20033;-47
2022/12/18 07:39:59;;;;;;;45.08;4.88;;;;;;;;;;5032501;28;20061;-45
2022/12/18 07:42:31;;;;;;;27.75;3.63;;;;;;;;;;5032525;28;20061;-45
2022/12/18 07:45:01;;;;;;;30.45;3.42;;;;;;;;;;5032385;28;20056;-45
2022/12/18 07:47:29;;;;;;;25.13;3.15;;;;;;;;;;5032464;28;20108;-44
2022/12/18 07:49:56;;;;;;;17.45;3.15;;;;;;;;;;5032275;28;20033;-44
2022/12/18 07:52:23;;;;;;;16.83;2.45;;;;;;;;;;5032154;28;20700;-44
2022/12/18 07:54:50;;;;;;;26.95;3.10;;;;;;;;;;5032171;28;20022;-43
2022/12/18 07:57:17;;;;;;;18.02;2.70;;;;;;;;;;5032201;28;20403;-44
2022/12/18 07:59:44;;;;;;;21.45;3.03;;;;;;;;;;5032232;28;20057;-43
2022/12/18 08:02:11;;;;;;;22.38;2.97;;;;;;;;;;5032185;28;20037;-43
2022/12/18 08:04:38;;;;;;;26.60;3.30;;;;;;;;;;5032235;28;20065;-43
2022/12/18 08:07:05;;;;;;;20.92;3.00;;;;;;;;;;5032136;28;20033;-43
2022/12/18 08:09:32;;;;;;;25.98;3.38;;;;;;;;;;5031848;28;20040;-44
2022/12/18 08:11:59;;;;;;;28.05;3.03;;;;;;;;;;5032006;28;20044;-43
2022/12/18 08:14:26;;;;;;;19.25;2.70;;;;;;;;;;5032073;28;20025;-43
2022/12/18 08:16:53;;;;;;;17.70;2.75;;;;;;;;;;5032076;28;20032;-43
2022/12/18 08:19:20;;;;;;;17.38;2.35;;;;;;;;;;5031802;28;20072;-43
2022/12/18 08:21:47;;;;;;;23.17;3.00;;;;;;;;;;5031587;28;20099;-43
2022/12/18 08:24:14;;;;;;;37.92;4.38;;;;;;;;;;5031751;28;20032;-43
2022/12/18 08:26:41;;;;;;;30.70;3.50;;;;;;;;;;5032015;28;20034;-43
2022/12/18 08:29:08;;;;;;;22.42;3.45;;;;;;;;;;5031901;28;20037;-43
2022/12/18 08:31:35;;;;;;;26.52;3.53;;;;;;;;;;5031732;28;20399;-43
2022/12/18 08:34:02;;;;;;;23.77;3.30;;;;;;;;;;5031867;28;20032;-43
2022/12/18 08:36:28;;;;;;;32.50;3.50;;;;;;;;;;5014071;28;20049;-43
2022/12/18 08:38:55;;;;;;;21.38;3.00;;;;;;;;;;5031508;28;20033;-43
2022/12/18 08:41:23;;;;;;;19.95;3.30;;;;;;;;;;5031860;28;20172;-43
2022/12/18 08:46:37;;;;;;;22.52;3.17;;;;;;;;;;5032104;28;20167;-43
2022/12/18 08:49:05;;;;;;;18.17;2.50;;;;;;;;;;5031646;28;20074;-47
2022/12/18 08:51:32;;;;;;;19.98;2.35;;;;;;;;;;5031574;28;20038;-48
2022/12/18 08:53:59;;;;;;;27.13;3.58;;;;;;;;;;5031397;28;20418;-44
2022/12/18 08:56:26;;;;;;;20.42;2.95;;;;;;;;;;5031795;28;20479;-48
2022/12/18 08:58:53;;;;;;;20.50;3.17;;;;;;;;;;5031469;28;20072;-45
2022/12/18 09:01:20;;;;;;;21.80;2.58;;;;;;;;;;5031666;28;20027;-49
2022/12/18 09:03:47;;;;;;;23.80;2.88;;;;;;;;;;5031701;28;20028;-47
2022/12/18 09:06:15;;;;;;;21.05;2.78;;;;;;;;;;5031594;28;20033;-47
2022/12/18 09:08:43;;;;;;;19.80;2.63;;;;;;;;;;5031586;28;20021;-48
2022/12/18 09:11:19;;;;;;;18.23;2.38;;;;;;;;;;5031445;28;20033;-45
2022/12/18 09:13:46;;;;;;;17.27;2.85;;;;;;;;;;5031520;28;20549;-44
2022/12/18 09:16:13;;;;;;;21.95;2.83;;;;;;;;;;5031374;28;20041;-48
2022/12/18 09:18:40;;;;;;;17.85;2.75;;;;;;;;;;5031539;28;20025;-47
2022/12/18 09:21:14;;;;;;;18.83;2.75;;;;;;;;;;5031452;28;20100;-45
2022/12/18 09:23:41;;;;;;;14.43;2.67;;;;;;;;;;5031420;28;20030;-49
2022/12/18 09:26:08;;;;;;;21.15;3.35;;;;;;;;;;5031429;28;20025;-43
2022/12/18 09:28:35;;;;;;;15.55;2.88;;;;;;;;;;5031457;28;20078;-43
2022/12/18 09:31:08;;;;;;;24.88;3.20;;;;;;;;;;5031338;28;20033;-43
2022/12/18 09:33:36;;;;;;;21.42;3.25;;;;;;;;;;5033781;28;20026;-43
2022/12/18 09:36:04;;;;;;;28.08;3.60;;;;;;;;;;5034764;28;20034;-42
2022/12/18 09:38:31;;;;;;;20.90;2.80;;;;;;;;;;5034866;28;20040;-43
2022/12/18 09:41:06;;;;;;;16.13;2.25;;;;;;;;;;5035112;28;20387;-43
2022/12/18 09:43:36;;;;;;;25.40;3.65;;;;;;;;;;5034744;28;20034;-43
2022/12/18 09:46:08;;;;;;;25.55;3.72;;;;;;;;;;5016964;28;20148;-42
2022/12/18 09:48:37;;;;;;;27.98;3.83;;;;;;;;;;5034675;28;20018;-44
2022/12/18 09:51:10;;;;;;;21.50;3.05;;;;;;;;;;5034571;28;20399;-43
2022/12/18 09:53:39;;;;;;;15.60;2.63;;;;;;;;;;5034332;28;20073;-43
2022/12/18 09:56:07;;;;;;;14.23;2.40;;;;;;;;;;5034752;28;20033;-42
2022/12/18 09:58:34;;;;;;;17.25;2.95;;;;;;;;;;5034680;28;20028;-43
2022/12/18 10:01:01;;;;;;;23.30;2.88;;;;;;;;;;5034464;28;20021;-44
2022/12/18 10:03:28;;;;;;;19.75;3.00;;;;;;;;;;5034542;28;20029;-43
2022/12/18 10:06:10;;;;;;;18.60;2.92;;;;;;;;;;5034320;28;20546;-43
2022/12/18 10:08:55;;;;;;;25.23;3.08;;;;;;;;;;5034200;28;20091;-43
2022/12/18 10:11:28;;;;;;;24.52;3.30;;;;;;;;;;5034234;28;20546;-43
2022/12/18 10:13:58;;;;;;;23.92;3.40;;;;;;;;;;5034301;28;20037;-43
2022/12/18 10:16:29;;;;;;;24.92;4.03;;;;;;;;;;5034022;28;20026;-43
2022/12/18 10:18:59;;;;;;;24.80;3.63;;;;;;;;;;5034151;28;20092;-43
2022/12/18 10:21:55;;;;;;;25.73;3.70;;;;;;;;;;5034193;28;20034;-43
2022/12/18 10:24:30;;;;;;;29.13;3.90;;;;;;;;;;4980725;28;20130;-44
2022/12/18 10:27:05;;;;;;;15.88;3.28;;;;;;;;;;5033963;28;20025;-45
2022/12/18 10:29:32;;;;;;;19.80;3.03;;;;;;;;;;5033973;28;20029;-43
2022/12/18 10:31:59;;;;;;;26.33;3.08;;;;;;;;;;5033643;28;20042;-43
2022/12/18 10:34:26;;;;;;;27.13;2.83;;;;;;;;;;5034048;28;20432;-43
2022/12/18 10:36:53;;;;;;;24.65;2.67;;;;;;;;;;5034037;28;20787;-43
2022/12/18 10:39:26;;;;;;;25.23;3.10;;;;;;;;;;5033738;28;20025;-44
2022/12/18 10:41:53;;;;;;;21.08;2.90;;;;;;;;;;5033792;28;20060;-43
2022/12/18 10:44:21;;;;;;;20.90;2.80;;;;;;;;;;5033314;28;20105;-43
2022/12/18 10:46:50;;;;;;;21.58;2.78;;;;;;;;;;5033723;28;20053;-44
2022/12/18 10:49:36;;;;;;;22.98;2.67;;;;;;;;;;5033563;28;20075;-44
2022/12/18 10:52:08;;;;;;;18.38;2.75;;;;;;;;;;5033396;28;20140;-44
2022/12/18 10:54:36;;;;;;;30.95;4.63;;;;;;;;;;5033248;28;20500;-43
2022/12/18 10:57:16;;;;;;;24.70;3.80;;;;;;;;;;5033366;28;20061;-43
2022/12/18 11:00:02;;;;;;;23.48;3.72;;;;;;;;;;5033328;28;20056;-43
2022/12/18 11:02:35;;;;;;;22.58;2.80;;;;;;;;;;5023004;28;20056;-46
2022/12/18 11:05:02;;;;;;;21.48;3.17;;;;;;;;;;5033326;28;20040;-43
2022/12/18 11:07:49;;;;;;;19.30;3.25;;;;;;;;;;5033331;28;20026;-44
2022/12/18 11:10:20;;;;;;;22.73;2.85;;;;;;;;;;5033068;28;20033;-43
2022/12/18 11:12:48;;;;;;;26.23;3.38;;;;;;;;;;5033135;28;20045;-43
2022/12/18 11:15:22;;;;;;;18.48;3.45;;;;;;;;;;5033106;28;20036;-43
2022/12/18 11:17:50;;;;;;;18.35;3.20;;;;;;;;;;5033163;28;20025;-43
2022/12/18 11:20:35;;;;;;;23.50;3.92;;;;;;;;;;5032977;28;20487;-44
2022/12/18 11:23:03;;;;;;;21.55;3.92;;;;;;;;;;5033011;28;20033;-44
2022/12/18 11:25:31;;;;;;;21.27;2.97;;;;;;;;;;5032928;28;20120;-44
2022/12/18 11:28:02;;;;;;;15.27;2.83;;;;;;;;;;5032761;28;20064;-43
2022/12/18 11:30:31;;;;;;;17.77;2.88;;;;;;;;;;5032514;28;20815;-43
2022/12/18 11:32:58;;;;;;;21.42;2.92;;;;;;;;;;5032822;28;20029;-43
2022/12/18 11:35:38;;;;;;;18.02;3.05;;;;;;;;;;5032750;28;20491;-43
2022/12/18 11:38:28;;;;;;;25.55;3.08;;;;;;;;;;5032767;28;20448;-44
2022/12/18 11:41:01;;;;;;;21.38;3.70;;;;;;;;;;5025019;28;20096;-44
2022/12/18 11:43:31;;;;;;;22.20;3.47;;;;;;;;;;5032604;28;20060;-43
2022/12/18 11:46:08;;;;;;;14.95;2.90;;;;;;;;;;5032510;28;20407;-43
2022/12/18 11:48:40;;;;;;;32.55;3.95;;;;;;;;;;5032390;28;20407;-44
2022/12/18 11:51:11;;;;;;;19.15;2.92;;;;;;;;;;5032430;28;20025;-42
2022/12/18 11:53:39;;;;;;;28.52;3.20;;;;;;;;;;5032120;28;20065;-46
2022/12/18 11:56:15;;;;;;;17.73;2.90;;;;;;;;;;5031622;28;20365;-43
2022/12/18 11:58:42;;;;;;;21.83;2.60;;;;;;;;;;5032295;28;20083;-43
2022/12/18 12:01:30;;;;;;;29.92;3.47;;;;;;;;;;5032332;28;20541;-43
2022/12/18 12:04:03;;;;;;;18.17;3.55;;;;;;;;;;5032379;28;20029;-43
2022/12/18 12:06:30;;;;;;;29.50;3.95;;;;;;;;;;5032202;28;20471;-42
2022/12/18 12:09:09;;;;;;;27.80;3.50;;;;;;;;;;5032080;28;20029;-43
2022/12/18 12:11:42;;;;;;;29.40;3.75;;;;;;;;;;5032159;28;20037;-43
2022/12/18 12:14:25;;;;;;;28.90;3.80;;;;;;;;;;5032162;28;20032;-43
2022/12/18 12:16:52;;;;;;;19.80;3.03;;;;;;;;;;5032093;28;20031;-43
2022/12/18 12:19:33;;;;;;;20.38;3.28;;;;;;;;;;5032040;28;20021;-44
2022/12/18 12:22:19;;;;;;;26.03;3.80;;;;;;;;;;5047341;28;20038;-43
2022/12/18 12:24:48;;;;;;;25.55;3.70;;;;;;;;;;5031949;28;20268;-43
2022/12/18 12:27:22;;;;;;;29.50;3.83;;;;;;;;;;5031917;28;20072;-43
2022/12/18 12:29:52;;;;;;;24.15;3.10;;;;;;;;;;5031846;28;20026;-44
2022/12/18 12:32:37;;;;;;;27.33;3.55;;;;;;;;;;5031985;28;20034;-43
2022/12/18 12:35:22;;;;;;;27.40;3.70;;;;;;;;;;5031894;28;20505;-45
2022/12/18 12:37:59;;;;;;;27.63;3.35;;;;;;;;;;5031752;28;20029;-43
2022/12/18 12:40:28;;;;;;;19.50;3.00;;;;;;;;;;5046167;28;20041;-43
2022/12/18 12:43:14;;;;;;;25.60;3.42;;;;;;;;;;5031767;28;20025;-43
2022/12/18 12:45:59;;;;;;;21.30;3.33;;;;;;;;;;5031746;28;20483;-43
2022/12/18 12:48:33;;;;;;;22.67;2.78;;;;;;;;;;5049686;28;20107;-45
2022/12/18 12:51:03;;;;;;;27.60;3.72;;;;;;;;;;5051595;28;20033;-47
2022/12/18 12:53:35;;;;;;;36.67;4.05;;;;;;;;;;5051398;28;20045;-46
2022/12/18 12:56:02;;;;;;;47.17;4.80;;;;;;;;;;5051362;28;20041;-49
2022/12/18 12:58:32;;;;;;;30.20;4.20;;;;;;;;;;5051464;28;20029;-50
2022/12/18 13:00:59;;;;;;;45.67;3.97;;;;;;;;;;5051518;28;20025;-49
2022/12/18 13:03:44;;;;;;;31.48;4.43;;;;;;;;;;5051353;28;20025;-47
2022/12/18 13:06:15;;;;;;;35.47;4.68;;;;;;;;;;5051794;28;20033;-46
2022/12/18 13:08:56;;;;;;;37.35;5.07;;;;;;;;;;5055340;28;20037;-48
2022/12/18 13:14:28;;;;;;;35.30;5.03;;;;;;;;;;5055357;28;20094;-47
2022/12/18 13:17:14;;;;;;;40.72;4.70;;;;;;;;;;5055210;28;20025;-46
2022/12/18 13:19:41;;;;;;;43.15;5.78;;;;;;;;;;5054336;28;20029;-47
2022/12/18 13:22:21;;;;;;;35.67;4.65;;;;;;;;;;5055092;28;20053;-47
2022/12/18 13:24:48;;;;;;;40.05;4.72;;;;;;;;;;5052747;28;20104;-44
2022/12/18 13:27:33;;;;;;;40.03;5.00;;;;;;;;;;5054225;28;20120;-44
2022/12/18 13:30:00;;;;;;;35.65;4.30;;;;;;;;;;5049484;28;20178;-45
2022/12/18 13:32:27;;;;;;;27.05;4.30;;;;;;;;;;5055021;28;20372;-49
2022/12/18 13:35:27;;;;;;;31.33;4.28;;;;;;;;;;5054623;28;20059;-48
2022/12/18 13:37:54;;;;;;;36.22;4.72;;;;;;;;;;5010923;28;20081;-51
2022/12/18 13:40:41;;;;;;;32.35;4.20;;;;;;;;;;5054369;28;20043;-44
2022/12/18 13:43:20;;;;;;;39.00;4.38;;;;;;;;;;5013643;28;20045;-47
2022/12/18 13:46:05;;;;;;;45.78;5.43;;;;;;;;;;5054685;28;20021;-44
2022/12/18 13:48:33;;;;;;;52.50;5.53;;;;;;;;;;5054436;28;20024;-45
2022/12/18 13:51:07;;;;;;;35.38;5.85;;;;;;;;;;5054546;28;20032;-45
2022/12/18 13:53:37;;;;;;;42.15;5.70;;;;;;;;;;5054375;28;20045;-49
2022/12/18 13:56:05;;;;;;;48.00;6.38;;;;;;;;;;5054294;28;20075;-44
2022/12/18 13:58:32;;;;;;;49.63;5.95;;;;;;;;;;5054170;28;20078;-46
2022/12/18 14:01:01;;;;;;;47.33;7.13;;;;;;;;;;5054400;28;20025;-50
2022/12/18 14:03:30;;;;;;;57.72;7.75;;;;;;;;;;5054232;28;20040;-49
2022/12/18 14:05:59;;;;;;;47.40;7.90;;;;;;;;;;5054355;28;20049;-44
2022/12/18 14:08:28;;;;;;;64.40;8.20;;;;;;;;;;5053961;28;20139;-46
2022/12/18 14:10:56;;;;;;;54.05;7.60;;;;;;;;;;5053614;28;20043;-44
2022/12/18 14:13:26;;;;;;;53.25;6.63;;;;;;;;;;5053520;28;20050;-43
2022/12/18 14:15:53;;;;;;;51.60;6.72;;;;;;;;;;5053693;28;20060;-43
2022/12/18 14:18:25;;;;;;;51.30;7.22;;;;;;;;;;5052674;28;20025;-45
2022/12/18 14:20:53;;;;;;;51.05;7.70;;;;;;;;;;5053765;28;20029;-48
2022/12/18 14:23:29;;;;;;;73.65;9.07;;;;;;;;;;5053381;28;20103;-48
2022/12/18 14:25:56;;;;;;;103.10;8.80;;;;;;;;;;5053982;28;20067;-49
2022/12/18 14:28:23;;;;;;;88.22;9.60;;;;;;;;;;5053793;28;20025;-51
2022/12/18 14:30:51;;;;;;;76.90;9.75;;;;;;;;;;5053638;28;20078;-49
2022/12/18 14:33:28;;;;;;;84.93;9.68;;;;;;;;;;5053658;28;20522;-51
2022/12/18 14:35:58;;;;;;;67.40;8.43;;;;;;;;;;5053043;28;20130;-46
2022/12/18 14:38:36;;;;;;;61.60;8.50;;;;;;;;;;5052751;28;20098;-51
2022/12/18 14:41:07;;;;;;;60.83;7.70;;;;;;;;;;5053461;28;20098;-47
2022/12/18 14:43:35;;;;;;;62.53;8.27;;;;;;;;;;5053479;28;20044;-48
2022/12/18 14:46:03;;;;;;;54.05;7.90;;;;;;;;;;5052995;28;20064;-48
2022/12/18 14:48:33;;;;;;;74.30;8.40;;;;;;;;;;5053335;28;20029;-48
2022/12/18 14:51:02;;;;;;;57.20;8.20;;;;;;;;;;5053405;28;20437;-50
2022/12/18 14:53:35;;;;;;;46.70;6.90;;;;;;;;;;5053141;28;20120;-50